Atmospheric History
01/19/2019 02:18  to  1/20/2019 02:18
Change End Date:
To complete the export process:
1) Select all of the data below
2) Copy the data to the clipboard
3) Open a word processor such as Notepad
4) Paste the data into the word processor
5) Save the file

Date/Time (MDT), AirTemp, RH, Dewpoint ,AvgWindSpeed, GustWindSpeed, WindDirection, PrecipType, PrecipIntensity, PrecipAccumulation, PrecipRate
01/20/2019 02:17, 36, 72, 28 ,1, 2, SW, None, None, ,  
01/20/2019 02:07, 36, 69, 27 ,2, 4, W, None, None, ,  
01/20/2019 02:06, 37, 69, 27 ,2, 4, W, Yes, , ,  
01/20/2019 01:57, 37, 67, 27 ,3, 4, W, None, None, ,  
01/20/2019 01:51, 37, 67, 28 ,3, 4, W, None, None, ,  
01/20/2019 01:47, 37, 68, 28 ,2, 4, W, None, None, ,  
01/20/2019 01:37, 37, 68, 28 ,2, 4, W, None, None, ,  
01/20/2019 01:36, 37, 68, 28 ,2, 4, W, None, None, ,  
01/20/2019 01:27, 37, 70, 28 ,2, 4, W, None, None, ,  
01/20/2019 01:21, 37, 70, 28 ,2, 4, W, None, None, ,  
01/20/2019 01:17, 37, 70, 28 ,3, 4, W, None, None, ,  
01/20/2019 01:06, 37, 70, 28 ,3, 4, W, None, None, ,  
01/20/2019 01:06, 37, 70, 28 ,2, 4, W, None, None, ,  
01/20/2019 00:56, 37, 70, 28 ,3, 5, W, None, None, ,  
01/20/2019 00:51, 37, 71, 28 ,3, 6, W, None, None, ,  
01/20/2019 00:46, 36, 71, 28 ,3, 6, W, None, None, ,  
01/20/2019 00:36, 36, 72, 28 ,2, 4, SW, Yes, , ,  
01/20/2019 00:36, 36, 72, 28 ,2, 4, SW, Yes, , ,  
01/20/2019 00:26, 36, 71, 28 ,2, 4, SW, None, None, ,  
01/20/2019 00:21, 36, 70, 27 ,2, 4, W, None, None, ,  
01/20/2019 00:16, 36, 69, 27 ,2, 4, NW, None, None, ,  
01/20/2019 00:06, 37, 68, 27 ,3, 5, W, None, None, ,  
01/20/2019 00:06, 37, 68, 27 ,3, 5, W, None, None, ,  
01/19/2019 23:56, 37, 68, 28 ,4, 6, W, None, None, ,  
01/19/2019 23:51, 37, 69, 28 ,4, 6, W, None, None, ,  
01/19/2019 23:46, 37, 69, 28 ,4, 7, W, None, None, ,  
01/19/2019 23:36, 37, 69, 28 ,4, 7, W, None, None, ,  
01/19/2019 23:35, 37, 69, 28 ,6, 7, W, None, None, ,  
01/19/2019 23:26, 37, 70, 28 ,4, 6, W, Yes, , ,  
01/19/2019 23:21, 37, 70, 28 ,2, 5, W, None, None, ,  
01/19/2019 23:16, 37, 70, 28 ,3, 5, W, None, None, ,  
01/19/2019 23:06, 37, 71, 28 ,3, 4, W, None, None, ,  
01/19/2019 23:05, 37, 71, 28 ,4, 4, W, None, None, ,  
01/19/2019 22:56, 37, 70, 28 ,4, 6, W, None, None, ,  
01/19/2019 22:50, 38, 69, 29 ,4, 6, W, None, None, ,  
01/19/2019 22:46, 38, 69, 29 ,4, 6, W, None, None, ,  
01/19/2019 22:36, 38, 69, 29 ,4, 7, W, None, None, ,  
01/19/2019 22:36, 38, 69, 29 ,4, 7, W, None, None, ,  
01/19/2019 22:26, 38, 70, 29 ,2, 8, W, Yes, , ,  
01/19/2019 22:21, 38, 70, 30 ,3, 8, W, None, None, ,  
01/19/2019 22:16, 38, 70, 29 ,3, 6, SW, Yes, , ,  
01/19/2019 22:06, 38, 70, 30 ,3, 7, W, None, None, ,  
01/19/2019 22:05, 38, 70, 30 ,3, 7, W, Yes, , ,  
01/19/2019 21:55, 39, 66, 29 ,3, 6, W, Yes, , ,  
01/19/2019 21:51, 40, 64, 29 ,2, 7, SW, Yes, , ,  
01/19/2019 21:45, 40, 63, 28 ,2, 9, S, Yes, , ,  
01/19/2019 21:36, 40, 61, 28 ,1, 9, SW, Yes, , ,  
01/19/2019 21:35, 40, 61, 28 ,2, 9, W, None, None, ,  
01/19/2019 21:25, 40, 61, 28 ,6, 13, W, Yes, , ,  
01/19/2019 21:20, 40, 61, 28 ,7, 13, W, Yes, , ,  
01/19/2019 21:15, 40, 61, 27 ,4, 11, W, Yes, , ,  
01/19/2019 21:05, 39, 59, 26 ,5, 17, W, Yes, , ,  
01/19/2019 21:05, 39, 58, 26 ,5, 17, W, Yes, , ,  
01/19/2019 20:55, 40, 54, 25 ,6, 14, W, Yes, , ,  
01/19/2019 20:51, 40, 54, 25 ,6, 14, NW, Yes, , ,  
01/19/2019 20:45, 39, 50, 22 ,6, 16, SW, Yes, , ,  
01/19/2019 20:36, 39, 52, 23 ,4, 9, SW, Yes, , ,  
01/19/2019 20:35, 39, 52, 23 ,3, 9, SW, Yes, , ,  
01/19/2019 20:25, 38, 53, 23 ,4, 9, W, Yes, , ,  
01/19/2019 20:21, 38, 53, 23 ,4, 7, SW, Yes, , ,  
01/19/2019 20:15, 38, 53, 23 ,4, 7, W, Yes, , ,  
01/19/2019 20:05, 38, 53, 23 ,3, 7, SW, Yes, , ,  
01/19/2019 20:05, 38, 53, 23 ,3, 7, SW, Yes, , ,  
01/19/2019 19:55, 38, 52, 23 ,4, 7, W, None, None, ,  
01/19/2019 19:50, 38, 52, 23 ,4, 7, W, None, None, ,  
01/19/2019 19:45, 38, 52, 23 ,3, 6, W, None, None, ,  
01/19/2019 19:35, 38, 54, 23 ,4, 8, SW, Yes, , ,  
01/19/2019 19:35, 38, 54, 23 ,4, 8, W, Yes, , ,  
01/19/2019 19:25, 38, 54, 23 ,4, 7, W, None, None, ,  
01/19/2019 19:21, 38, 53, 23 ,4, 7, W, None, None, ,  
01/19/2019 19:15, 38, 53, 23 ,4, 9, W, None, None, ,  
01/19/2019 19:05, 38, 53, 23 ,3, 7, W, None, None, ,  
01/19/2019 19:05, 38, 53, 23 ,3, 7, W, None, None, ,  
01/19/2019 18:55, 38, 54, 23 ,6, 10, W, None, None, ,  
01/19/2019 18:50, 38, 54, 23 ,4, 7, W, None, None, ,  
01/19/2019 18:44, 38, 54, 23 ,4, 7, W, None, None, ,  
01/19/2019 18:35, 38, 54, 23 ,4, 7, W, None, None, ,  
01/19/2019 18:34, 38, 54, 23 ,4, 7, W, None, None, ,  
01/19/2019 18:24, 38, 55, 24 ,4, 7, W, None, None, ,  
01/19/2019 18:20, 38, 55, 23 ,2, 7, W, None, None, ,  
01/19/2019 18:14, 38, 55, 23 ,4, 7, W, None, None, ,  
01/19/2019 18:05, 38, 55, 24 ,3, 6, W, None, None, ,  
01/19/2019 18:04, 38, 55, 24 ,3, 6, W, None, None, ,  
01/19/2019 17:54, 38, 56, 24 ,3, 8, W, None, None, ,  
01/19/2019 17:51, 38, 57, 24 ,4, 8, W, None, None, ,  
01/19/2019 17:44, 38, 57, 24 ,4, 10, W, None, None, ,  
01/19/2019 17:36, 37, 58, 24 ,3, 7, W, None, None, ,  
01/19/2019 17:34, 37, 58, 24 ,4, 7, W, None, None, ,  
01/19/2019 17:24, 37, 60, 24 ,4, 9, W, None, None, ,  
01/19/2019 17:20, 37, 61, 25 ,4, 9, W, None, None, ,  
01/19/2019 17:14, 37, 62, 25 ,4, 7, W, None, None, ,  
01/19/2019 17:05, 37, 59, 24 ,3, 7, W, None, None, ,  
01/19/2019 17:04, 37, 58, 24 ,4, 7, W, None, None, ,  
01/19/2019 16:54, 37, 58, 24 ,5, 9, W, None, None, ,  
01/19/2019 16:50, 37, 58, 24 ,3, 6, W, None, None, ,  
01/19/2019 16:44, 37, 59, 24 ,3, 7, W, None, None, ,  
01/19/2019 16:35, 36, 61, 24 ,4, 8, W, None, None, ,  
01/19/2019 16:34, 36, 62, 24 ,4, 8, W, None, None, ,  
01/19/2019 16:24, 36, 61, 24 ,3, 6, W, None, None, ,  
01/19/2019 16:20, 36, 62, 24 ,4, 6, W, None, None, ,  
01/19/2019 16:14, 36, 62, 24 ,4, 6, W, None, None, ,  
01/19/2019 16:05, 36, 63, 25 ,4, 6, W, None, None, ,  
01/19/2019 16:04, 36, 64, 25 ,4, 6, W, None, None, ,  
01/19/2019 15:54, 35, 67, 26 ,3, 6, W, None, None, ,  
01/19/2019 15:51, 35, 68, 26 ,4, 6, W, None, None, ,  
01/19/2019 15:44, 35, 68, 26 ,4, 6, W, None, None, ,  
01/19/2019 15:36, 36, 67, 26 ,3, 7, W, None, None, ,  
01/19/2019 15:34, 36, 67, 26 ,4, 7, W, None, None, ,  
01/19/2019 15:23, 35, 67, 26 ,2, 6, SW, None, None, ,  
01/19/2019 15:21, 35, 67, 26 ,4, 7, W, None, None, ,  
01/19/2019 15:13, 35, 68, 26 ,3, 9, W, None, None, ,  
01/19/2019 15:05, 35, 65, 25 ,4, 7, W, None, None, ,  
01/19/2019 15:03, 35, 65, 25 ,4, 7, W, None, None, ,  
01/19/2019 14:53, 35, 65, 25 ,6, 7, W, None, None, ,  
01/19/2019 14:50, 35, 67, 25 ,4, 6, W, None, None, ,  
01/19/2019 14:43, 35, 68, 25 ,4, 7, W, None, None, ,  
01/19/2019 14:36, 34, 68, 25 ,4, 7, W, None, None, ,  
01/19/2019 14:33, 34, 68, 25 ,3, 7, W, None, None, ,  
01/19/2019 14:23, 34, 67, 24 ,5, 8, W, None, None, ,  
01/19/2019 14:21, 34, 67, 25 ,6, 8, W, None, None, ,  
01/19/2019 14:13, 34, 68, 25 ,3, 9, W, None, None, ,  
01/19/2019 14:06, 33, 69, 25 ,4, 11, W, None, None, ,  
01/19/2019 14:03, 33, 70, 25 ,5, 11, W, None, None, ,  
01/19/2019 13:53, 33, 70, 25 ,6, 9, W, None, None, ,  
01/19/2019 13:50, 33, 70, 25 ,4, 9, W, None, None, ,  
01/19/2019 13:43, 33, 71, 25 ,6, 9, W, None, None, ,  
01/19/2019 13:36, 33, 72, 25 ,6, 9, W, None, None, ,  
01/19/2019 13:33, 33, 72, 25 ,6, 9, W, None, None, ,  
01/19/2019 13:23, 33, 72, 25 ,6, 9, W, None, None, ,  
01/19/2019 13:20, 33, 72, 25 ,6, 9, W, None, None, ,  
01/19/2019 13:13, 33, 72, 25 ,7, 11, W, None, None, ,  
01/19/2019 13:06, 33, 72, 25 ,7, 10, W, None, None, ,  
01/19/2019 13:03, 33, 72, 25 ,7, 10, W, None, None, ,  
01/19/2019 12:53, 34, 72, 26 ,6, 9, W, None, None, ,  
01/19/2019 12:50, , ,   , , , -, Other, Other, ,  
01/19/2019 12:43, 34, 71, 26 ,6, 9, W, None, None, ,  
01/19/2019 12:35, 34, 72, 26 ,6, 10, W, None, None, ,  
01/19/2019 12:32, 34, 73, 26 ,6, 10, W, None, None, ,  
01/19/2019 12:22, 34, 72, 26 ,5, 11, W, None, None, ,  
01/19/2019 12:20, 34, 72, 26 ,6, 11, W, None, None, ,  
01/19/2019 12:12, 34, 72, 26 ,6, 7, W, None, None, ,  
01/19/2019 12:05, 34, 72, 26 ,4, 7, W, None, None, ,  
01/19/2019 12:02, 34, 72, 26 ,4, 7, W, None, None, ,  
01/19/2019 11:52, 34, 72, 26 ,4, 9, W, None, None, ,  
01/19/2019 11:50, 34, 72, 26 ,3, 9, W, None, None, ,  
01/19/2019 11:42, 33, 71, 25 ,4, 7, W, None, None, ,  
01/19/2019 11:35, 32, 72, 24 ,4, 6, W, None, None, ,  
01/19/2019 11:32, 32, 72, 24 ,4, 6, W, None, None, ,  
01/19/2019 11:22, 32, 73, 24 ,4, 7, W, None, None, ,  
01/19/2019 11:20, 32, 73, 24 ,2, 7, W, Yes, , ,  
01/19/2019 11:12, 31, 73, 24 ,4, 9, W, None, None, ,  
01/19/2019 11:05, 31, 74, 24 ,4, 7, W, Yes, , ,  
01/19/2019 11:02, 31, 74, 24 ,4, 7, W, None, None, ,  
01/19/2019 10:52, 30, 77, 24 ,4, 7, W, Yes, , ,  
01/19/2019 10:50, 30, 78, 24 ,4, 7, W, None, None, ,  
01/19/2019 10:42, 29, 80, 24 ,2, 6, W, None, None, ,  
01/19/2019 10:35, 29, 80, 24 ,3, 6, W, None, None, ,  
01/19/2019 10:32, 29, 80, 24 ,3, 6, W, Yes, , ,  
01/19/2019 10:22, 29, 80, 23 ,5, 7, W, None, None, ,  
01/19/2019 10:22, 29, 80, 23 ,4, 7, W, None, None, ,  
01/19/2019 10:12, 29, 80, 23 ,6, 8, W, None, None, ,  
01/19/2019 10:05, 29, 80, 23 ,4, 7, W, None, None, ,  
01/19/2019 10:01, 29, 80, 23 ,5, 7, W, None, None, ,  
01/19/2019 09:51, 28, 80, 23 ,4, 7, W, None, None, ,  
01/19/2019 09:51, 28, 80, 23 ,4, 7, W, None, None, ,  
01/19/2019 09:41, 29, 78, 23 ,4, 7, W, None, None, ,  
01/19/2019 09:35, 29, 78, 23 ,4, 7, W, None, None, ,  
01/19/2019 09:31, 29, 78, 23 ,5, 7, W, None, None, ,  
01/19/2019 09:21, 28, 80, 23 ,4, 7, W, None, None, ,  
01/19/2019 09:21, 28, 81, 23 ,4, 7, NW, None, None, ,  
01/19/2019 09:11, 27, 82, 22 ,4, 9, W, None, None, ,  
01/19/2019 09:06, 27, 83, 22 ,5, 9, W, None, None, ,  
01/19/2019 09:01, 26, 84, 22 ,6, 7, W, None, None, ,  
01/19/2019 08:51, 25, 86, 21 ,5, 7, W, None, None, ,  
01/19/2019 08:50, 25, 86, 21 ,5, 7, W, None, None, ,  
01/19/2019 08:41, 24, 86, 21 ,6, 7, W, None, None, ,  
01/19/2019 08:36, 24, 86, 21 ,6, 7, W, None, None, ,  
01/19/2019 08:31, 24, 87, 21 ,4, 8, W, None, None, ,  
01/19/2019 08:21, 24, 86, 20 ,6, 8, W, None, None, ,  
01/19/2019 08:21, 24, 86, 20 ,7, 8, W, None, None, ,  
01/19/2019 08:11, 23, 86, 19 ,6, 8, W, None, None, ,  
01/19/2019 08:06, 23, 87, 20 ,6, 8, W, None, None, ,  
01/19/2019 08:01, 23, 87, 20 ,6, 8, W, None, None, ,  
01/19/2019 07:51, 21, 89, 19 ,6, 9, NW, None, None, ,  
01/19/2019 07:51, 21, 89, 19 ,6, 9, NW, None, None, ,  
01/19/2019 07:41, 19, 89, 16 ,7, 9, W, None, None, ,  
01/19/2019 07:36, 19, 89, 16 ,7, 8, W, None, None, ,  
01/19/2019 07:31, 19, 89, 17 ,7, 9, W, None, None, ,  
01/19/2019 07:21, 19, 89, 16 ,7, 9, W, None, None, ,  
01/19/2019 07:21, 19, 89, 16 ,7, 9, W, None, None, ,  
01/19/2019 07:11, 19, 89, 16 ,8, 11, W, None, None, ,  
01/19/2019 07:05, 18, 89, 16 ,9, 11, W, None, None, ,  
01/19/2019 07:01, 19, 89, 16 ,7, 11, W, None, None, ,  
01/19/2019 06:51, 21, 89, 18 ,7, 8, W, None, None, ,  
01/19/2019 06:50, 21, 89, 18 ,6, 8, W, None, None, ,  
01/19/2019 06:40, 21, 89, 19 ,5, 7, W, None, None, ,  
01/19/2019 06:35, 21, 89, 18 ,6, 7, W, None, None, ,  
01/19/2019 06:30, 21, 89, 19 ,6, 8, W, None, None, ,  
01/19/2019 06:20, 21, 89, 19 ,6, 8, W, None, None, ,  
01/19/2019 06:20, 21, 89, 19 ,6, 8, W, None, None, ,  
01/19/2019 06:10, 22, 89, 20 ,4, 7, W, None, None, ,  
01/19/2019 06:05, 22, 89, 20 ,5, 7, W, None, None, ,  
01/19/2019 06:00, 21, 89, 19 ,4, 6, W, None, None, ,  
01/19/2019 05:50, 21, 89, 19 ,5, 7, W, None, None, ,  
01/19/2019 05:50, 21, 89, 19 ,5, 7, W, None, None, ,  
01/19/2019 05:40, 21, 89, 19 ,5, 7, W, None, None, ,  
01/19/2019 05:36, 21, 89, 19 ,6, 7, W, None, None, ,  
01/19/2019 05:30, 21, 89, 19 ,6, 9, W, None, None, ,  
01/19/2019 05:20, 21, 89, 19 ,7, 10, W, None, None, ,  
01/19/2019 05:20, 21, 89, 19 ,6, 10, W, None, None, ,  
01/19/2019 05:10, 21, 89, 18 ,6, 9, W, None, None, ,  
01/19/2019 05:05, 21, 89, 18 ,6, 8, W, None, None, ,  
01/19/2019 05:00, 21, 89, 19 ,6, 7, W, None, None, ,  
01/19/2019 04:51, 20, 89, 18 ,6, 9, W, None, None, ,  
01/19/2019 04:50, 21, 89, 18 ,6, 9, W, None, None, ,  
01/19/2019 04:40, 20, 89, 18 ,4, 8, W, None, None, ,  
01/19/2019 04:35, 20, 90, 18 ,6, 9, W, None, None, ,  
01/19/2019 04:30, 20, 90, 17 ,7, 9, W, None, None, ,  
01/19/2019 04:20, 19, 90, 17 ,7, 9, W, None, None, ,  
01/19/2019 04:20, 19, 90, 17 ,7, 9, W, None, None, ,  
01/19/2019 04:10, 19, 90, 17 ,7, 9, W, None, None, ,  
01/19/2019 04:05, 19, 90, 17 ,6, 8, W, None, None, ,  
01/19/2019 04:00, 19, 90, 17 ,6, 9, W, None, None, ,  
01/19/2019 03:50, 19, 90, 16 ,6, 7, W, None, None, ,  
01/19/2019 03:50, 19, 90, 16 ,6, 7, W, None, None, ,  
01/19/2019 03:40, 18, 90, 16 ,6, 11, W, None, None, ,  
01/19/2019 03:35, 18, 90, 15 ,6, 9, W, None, None, ,  
01/19/2019 03:30, 17, 90, 14 ,7, 9, W, None, None, ,  
01/19/2019 03:20, 17, 90, 15 ,7, 9, W, None, None, ,  
01/19/2019 03:19, 17, 90, 15 ,7, 9, W, None, None, ,  
01/19/2019 03:09, 17, 90, 14 ,8, 10, W, None, None, ,  
01/19/2019 03:05, 16, 90, 14 ,8, 11, W, None, None, ,  
01/19/2019 02:59, 16, 90, 14 ,8, 11, W, None, None, ,  
01/19/2019 02:50, 16, 90, 14 ,9, 11, W, None, None, ,  
01/19/2019 02:49, 16, 90, 14 ,10, 11, W, None, None, ,  
01/19/2019 02:39, 17, 90, 14 ,9, 12, W, None, None, ,  
01/19/2019 02:35, 17, 90, 14 ,9, 11, W, None, None, ,  
01/19/2019 02:29, 17, 90, 14 ,7, 11, W, None, None, ,  
01/19/2019 02:20, 17, 90, 14 ,9, 10, W, None, None, ,  
01/19/2019 02:19, 17, 90, 14 ,9, 10, W, None, None, ,  
Change End Date:

Copyright © 1998-2015 Vaisala, Inc.
All Rights Reserved
Send comments about the data to:
SCAN Web ® is a registered trademark of Vaisala, Inc.
SCAN Web Version 6.0